Time;durP1;ratioP1;P1;durP2;ratioP2;P2;SDS_P1;SDS_P2;PMS_P1;PMS_P2;Temp;Humidity;BMP_temperature;BMP_pressure;BME280_temperature;BME280_humidity;BME280_pressure;Samples;Min_cycle;Max_cycle;Signal;HPM_P1;HPM_P2
2023/12/29 00:00:09;;;;;;;19.60;3.63;;;10.90;99.90;;;;;;5049431;28;36929;-81
2023/12/29 00:02:36;;;;;;;20.43;2.90;;;11.00;99.90;;;;;;5049805;28;40241;-81
2023/12/29 00:05:02;;;;;;;17.20;3.60;;;11.00;99.90;;;;;;5052818;28;39683;-80
2023/12/29 00:07:32;;;;;;;13.57;2.77;;;11.10;99.90;;;;;;5051510;28;36708;-80
2023/12/29 00:10:26;;;;;;;19.40;3.20;;;11.10;99.90;;;;;;5053717;28;38880;-81
2023/12/29 00:12:55;;;;;;;18.53;2.67;;;11.10;99.90;;;;;;5060559;28;47899;-81
2023/12/29 00:15:35;;;;;;;18.63;3.30;;;11.10;99.90;;;;;;5056096;28;38467;-80
2023/12/29 00:18:03;;;;;;;12.40;3.00;;;11.20;99.90;;;;;;5058119;28;39498;-80
2023/12/29 00:20:36;;;;;;;18.80;3.30;;;11.10;99.90;;;;;;5067548;28;47902;-80
2023/12/29 00:23:03;;;;;;;15.23;2.90;;;11.10;99.90;;;;;;5055320;28;38911;-80
2023/12/29 00:25:36;;;;;;;16.70;3.53;;;11.10;99.90;;;;;;5055573;28;38485;-81
2023/12/29 00:28:18;;;;;;;19.43;2.70;;;11.10;99.90;;;;;;5049490;28;38396;-80
2023/12/29 00:30:46;;;;;;;24.70;2.87;;;11.00;99.90;;;;;;5055266;28;36134;-81
2023/12/29 00:33:12;;;;;;;16.07;3.07;;;11.00;99.90;;;;;;5052482;28;37495;-81
2023/12/29 00:35:42;;;;;;;17.07;4.10;;;11.10;99.90;;;;;;5056748;28;38148;-81
2023/12/29 00:38:08;;;;;;;17.00;3.03;;;11.00;99.90;;;;;;5086372;28;37168;-81
2023/12/29 00:40:34;;;;;;;15.40;2.97;;;11.00;99.90;;;;;;5041000;28;39757;-80
2023/12/29 00:43:05;;;;;;;18.37;2.93;;;10.90;99.90;;;;;;5056450;22;39399;-80
2023/12/29 00:45:41;;;;;;;17.70;3.15;;;10.90;99.90;;;;;;5043313;28;48319;-81
2023/12/29 00:48:11;;;;;;;17.87;2.63;;;10.90;99.90;;;;;;4997410;28;39570;-81
2023/12/29 00:50:53;;;;;;;15.32;2.40;;;10.90;99.90;;;;;;5020159;28;20058;-81
2023/12/29 00:53:22;;;;;;;;;;;11.00;99.90;;;;;;5033617;28;39983;-81
2023/12/29 00:56:25;;;;;;;14.73;3.10;;;10.90;99.90;;;;;;5041749;28;40477;-82
2023/12/29 00:59:10;;;;;;;18.35;3.28;;;11.00;99.90;;;;;;5020821;28;47592;-81
2023/12/29 01:01:38;;;;;;;13.90;2.70;;;10.90;99.90;;;;;;5003736;28;48128;-80
2023/12/29 01:04:07;;;;;;;19.10;2.93;;;10.90;99.90;;;;;;5019482;28;39139;-80
2023/12/29 01:07:21;;;;;;;17.10;3.17;;;10.90;99.90;;;;;;5017836;28;38692;-81
2023/12/29 01:09:48;;;;;;;13.37;2.77;;;10.90;99.90;;;;;;4997613;28;49954;-81
2023/12/29 01:13:02;;;;;;;12.87;2.47;;;10.90;99.90;;;;;;5025018;28;37147;-81
2023/12/29 01:15:30;;;;;;;13.67;3.27;;;10.90;99.90;;;;;;5007655;28;50162;-81
2023/12/29 01:17:57;;;;;;;18.30;3.60;;;10.90;99.90;;;;;;4988067;28;40132;-76
2023/12/29 01:20:23;;;;;;;18.63;2.97;;;10.90;99.90;;;;;;5002602;28;36964;-76
2023/12/29 01:22:50;;;;;;;15.90;2.57;;;11.00;99.90;;;;;;5006281;28;36436;-77
2023/12/29 01:25:16;;;;;;;15.93;2.45;;;10.90;99.90;;;;;;5005536;28;37743;-78
2023/12/29 01:27:42;;;;;;;11.27;2.60;;;10.90;99.90;;;;;;5010712;28;37757;-78
2023/12/29 01:30:09;;;;;;;14.87;2.63;;;10.90;99.90;;;;;;5009852;28;37793;-78
2023/12/29 01:32:36;;;;;;;19.87;3.03;;;10.90;99.90;;;;;;5003230;28;36318;-78
2023/12/29 01:35:02;;;;;;;17.63;3.17;;;10.80;99.90;;;;;;5001434;28;37996;-78
2023/12/29 01:37:28;;;;;;;18.27;3.08;;;10.80;99.90;;;;;;5007637;28;37871;-76
2023/12/29 01:39:54;;;;;;;19.23;2.93;;;10.70;99.90;;;;;;5006857;28;38746;-76
2023/12/29 01:42:20;;;;;;;15.17;3.60;;;10.70;99.90;;;;;;5002781;28;35906;-76
2023/12/29 01:44:52;;;;;;;14.90;2.80;;;10.70;99.90;;;;;;5006752;28;38366;-76
2023/12/29 01:47:18;;;;;;;19.33;4.17;;;10.60;99.90;;;;;;5001968;28;37292;-76
2023/12/29 01:49:46;;;;;;;28.17;3.70;;;10.50;99.90;;;;;;5001025;28;39165;-78
2023/12/29 01:52:15;;;;;;;21.17;3.13;;;10.40;99.90;;;;;;5005351;28;37184;-78
2023/12/29 01:54:42;;;;;;;13.80;2.33;;;10.40;99.90;;;;;;5004974;28;39777;-78
2023/12/29 01:57:09;;;;;;;21.47;3.20;;;10.30;99.90;;;;;;5006895;28;39038;-78
2023/12/29 01:59:35;;;;;;;14.67;3.07;;;10.30;99.90;;;;;;5008650;28;37064;-79
2023/12/29 02:02:02;;;;;;;20.20;3.23;;;10.30;99.90;;;;;;5461918;22;37415;-85
2023/12/29 02:04:28;;;;;;;22.50;4.20;;;10.20;99.90;;;;;;4990590;28;37752;-88
2023/12/29 02:06:55;;;;;;;29.53;3.67;;;10.20;99.90;;;;;;5003900;28;39234;-87
2023/12/29 02:09:22;;;;;;;16.17;4.13;;;10.20;99.90;;;;;;5008687;28;39778;-86
2023/12/29 02:11:48;;;;;;;19.50;5.00;;;10.30;99.90;;;;;;5006801;28;35554;-88
2023/12/29 02:14:16;;;;;;;20.77;3.73;;;10.30;99.90;;;;;;5002516;28;37382;-88
2023/12/29 02:17:19;;;;;;;23.63;3.70;;;10.30;99.90;;;;;;5010874;28;37325;-86
2023/12/29 02:19:49;;;;;;;21.20;4.03;;;10.30;99.90;;;;;;4999021;28;47215;-88
2023/12/29 02:22:15;;;;;;;26.53;4.60;;;10.30;99.90;;;;;;5000363;28;36054;-88
2023/12/29 02:24:49;;;;;;;21.20;3.57;;;10.30;99.90;;;;;;5030241;28;38851;-86
2023/12/29 02:27:46;;;;;;;24.10;3.27;;;10.30;99.90;;;;;;5014692;28;38821;-88
2023/12/29 02:30:35;;;;;;;21.90;2.90;;;10.30;99.90;;;;;;4966011;28;36863;-88
2023/12/29 02:33:07;;;;;;;30.43;4.23;;;10.30;99.90;;;;;;5009089;28;37778;-89
2023/12/29 02:35:40;;;;;;;20.03;3.10;;;10.30;99.90;;;;;;5024593;28;49189;-87
2023/12/29 02:38:07;;;;;;;21.50;3.70;;;10.30;99.90;;;;;;5009150;28;37246;-82
2023/12/29 02:40:33;;;;;;;27.00;4.00;;;10.30;99.90;;;;;;5018863;28;37844;-87
2023/12/29 02:42:59;;;;;;;25.53;3.60;;;10.30;99.90;;;;;;5001741;28;36410;-89
2023/12/29 02:45:26;;;;;;;21.30;3.67;;;10.30;99.90;;;;;;5007400;28;37791;-89
2023/12/29 02:47:55;;;;;;;22.50;3.57;;;10.20;99.90;;;;;;5021348;28;39066;-88
2023/12/29 02:50:21;;;;;;;24.80;4.73;;;10.20;99.90;;;;;;5029236;28;38083;-89
2023/12/29 02:52:47;;;;;;;24.27;3.33;;;10.20;99.90;;;;;;5028651;28;37110;-88
2023/12/29 02:55:13;;;;;;;22.00;4.03;;;10.30;99.90;;;;;;5014377;28;40814;-89
2023/12/29 02:57:40;;;;;;;20.33;3.83;;;10.30;99.90;;;;;;5014866;28;38604;-89
2023/12/29 03:00:07;;;;;;;27.37;3.90;;;10.30;99.90;;;;;;5033324;28;38325;-89
2023/12/29 03:02:33;;;;;;;26.00;3.73;;;10.30;99.90;;;;;;5009147;28;36990;-89
2023/12/29 03:05:00;;;;;;;30.03;4.50;;;10.40;99.90;;;;;;5030414;28;39753;-90
2023/12/29 03:07:26;;;;;;;21.20;3.13;;;10.40;99.90;;;;;;5011438;28;37738;-90
2023/12/29 03:09:52;;;;;;;28.63;4.33;;;10.50;99.90;;;;;;5016591;28;38930;-90
2023/12/29 03:12:18;;;;;;;25.77;4.17;;;10.50;99.90;;;;;;5027754;28;37682;-90
2023/12/29 03:14:46;;;;;;;29.83;4.33;;;10.50;99.90;;;;;;5020327;28;39256;-91
2023/12/29 03:17:13;;;;;;;27.70;3.90;;;10.50;99.90;;;;;;4990525;28;38239;-89
2023/12/29 03:19:39;;;;;;;28.37;3.93;;;10.50;99.90;;;;;;5005957;28;37972;-87
2023/12/29 03:22:05;;;;;;;31.77;4.97;;;10.50;99.90;;;;;;5010511;28;38262;-86
2023/12/29 03:24:31;;;;;;;36.47;4.90;;;10.50;99.90;;;;;;5006033;28;37664;-87
2023/12/29 03:26:58;;;;;;;30.10;4.90;;;10.50;99.90;;;;;;4995142;28;37719;-88
2023/12/29 03:29:24;;;;;;;35.03;5.33;;;10.60;99.90;;;;;;4979531;28;36827;-87
2023/12/29 03:31:50;;;;;;;37.60;5.83;;;10.60;99.90;;;;;;4988907;28;37101;-89
2023/12/29 03:34:16;;;;;;;43.57;5.80;;;10.60;99.90;;;;;;5008606;28;37917;-88
2023/12/29 03:36:42;;;;;;;32.00;5.67;;;10.70;99.90;;;;;;5017727;28;37176;-89
2023/12/29 03:39:08;;;;;;;40.63;5.50;;;10.80;99.90;;;;;;5011086;28;37429;-88
2023/12/29 03:41:34;;;;;;;36.67;5.60;;;10.80;99.90;;;;;;5000153;28;36211;-88
2023/12/29 03:44:00;;;;;;;46.70;7.40;;;10.80;99.90;;;;;;5029330;28;39755;-87
2023/12/29 03:46:26;;;;;;;57.23;7.60;;;10.90;99.90;;;;;;5017122;28;46775;-87
2023/12/29 03:48:52;;;;;;;42.13;5.77;;;10.90;99.90;;;;;;5016083;28;38347;-86
2023/12/29 03:51:19;;;;;;;46.30;6.30;;;10.90;99.90;;;;;;5012769;28;37875;-86
2023/12/29 03:53:45;;;;;;;42.40;7.43;;;10.90;99.90;;;;;;5010432;28;39629;-86
2023/12/29 03:56:18;;;;;;;56.17;7.77;;;10.90;99.90;;;;;;5009789;28;38382;-88
2023/12/29 03:58:45;;;;;;;47.33;8.00;;;10.90;99.90;;;;;;5015671;28;38530;-82
2023/12/29 04:01:12;;;;;;;52.80;6.83;;;10.90;99.90;;;;;;5014031;28;35786;-87
2023/12/29 04:03:39;;;;;;;48.03;7.87;;;11.00;99.90;;;;;;5012953;28;37902;-86
2023/12/29 04:06:06;;;;;;;47.60;7.97;;;11.00;99.90;;;;;;5006002;28;37564;-85
2023/12/29 04:08:36;;;;;;;52.03;7.67;;;11.00;99.90;;;;;;5032046;28;38248;-84
2023/12/29 04:11:03;;;;;;;53.17;8.33;;;11.00;99.90;;;;;;5009346;28;36516;-84
2023/12/29 04:13:29;;;;;;;45.57;7.40;;;11.00;99.90;;;;;;5011852;28;36359;-83
2023/12/29 04:15:56;;;;;;;55.40;7.57;;;10.90;99.90;;;;;;5013943;28;38414;-86
2023/12/29 04:18:23;;;;;;;47.13;7.37;;;10.90;99.90;;;;;;5035897;28;39147;-86
2023/12/29 04:20:49;;;;;;;47.13;6.20;;;10.90;99.90;;;;;;5007784;28;36133;-87
2023/12/29 04:23:15;;;;;;;49.97;7.23;;;10.90;99.90;;;;;;5006705;28;38078;-85
2023/12/29 04:25:42;;;;;;;47.73;6.37;;;10.90;99.90;;;;;;5019375;28;37801;-87
2023/12/29 04:28:08;;;;;;;48.03;7.60;;;10.90;99.90;;;;;;5016824;28;37335;-87
2023/12/29 04:30:35;;;;;;;48.33;8.10;;;11.00;99.90;;;;;;5013203;28;37615;-89
2023/12/29 04:33:01;;;;;;;53.43;7.37;;;10.90;99.90;;;;;;5020448;28;38916;-87
2023/12/29 04:35:27;;;;;;;56.83;7.67;;;10.90;99.90;;;;;;5007086;28;46933;-87
2023/12/29 04:37:53;;;;;;;47.07;6.90;;;11.00;99.90;;;;;;5015858;28;37675;-88
2023/12/29 04:40:19;;;;;;;45.67;7.37;;;11.00;99.90;;;;;;5032733;28;38334;-88
2023/12/29 04:42:46;;;;;;;45.20;6.33;;;11.00;99.90;;;;;;5013401;28;38045;-88
2023/12/29 04:45:12;;;;;;;48.07;6.63;;;11.00;99.90;;;;;;5014161;28;38628;-88
2023/12/29 04:47:38;;;;;;;45.07;6.17;;;11.10;99.90;;;;;;5037400;28;37221;-87
2023/12/29 04:50:08;;;;;;;46.30;7.47;;;11.00;99.90;;;;;;5016091;28;37299;-85
2023/12/29 04:52:34;;;;;;;48.73;6.47;;;11.00;99.90;;;;;;5014279;28;37986;-86
2023/12/29 04:55:00;;;;;;;35.80;6.30;;;10.90;99.90;;;;;;5008624;28;38111;-88
2023/12/29 04:57:26;;;;;;;46.07;6.23;;;10.90;99.90;;;;;;5012483;28;37495;-88
2023/12/29 04:59:52;;;;;;;34.53;6.00;;;10.90;99.90;;;;;;5035175;28;37263;-87
2023/12/29 05:02:19;;;;;;;35.07;5.77;;;10.90;99.90;;;;;;5007953;28;38728;-88
2023/12/29 05:04:46;;;;;;;29.13;5.43;;;10.90;99.90;;;;;;5008589;28;38833;-88
2023/12/29 05:07:12;;;;;;;34.83;5.93;;;10.90;99.90;;;;;;5008706;28;37786;-88
2023/12/29 05:09:38;;;;;;;35.87;4.83;;;10.90;99.90;;;;;;5013531;28;36605;-87
2023/12/29 05:12:04;;;;;;;31.33;5.00;;;10.90;99.90;;;;;;5028756;28;39115;-86
2023/12/29 05:14:31;;;;;;;38.27;4.23;;;10.80;99.90;;;;;;5010208;28;38617;-89
2023/12/29 05:16:57;;;;;;;27.77;4.50;;;10.80;99.90;;;;;;5014411;28;37327;-87
2023/12/29 05:19:23;;;;;;;31.10;4.63;;;10.80;99.90;;;;;;5026917;28;37897;-84
2023/12/29 05:21:51;;;;;;;28.23;4.80;;;10.80;99.90;;;;;;5011003;28;36534;-86
2023/12/29 05:24:18;;;;;;;28.97;5.10;;;10.80;99.90;;;;;;5010432;28;38107;-84
2023/12/29 05:26:44;;;;;;;23.40;4.30;;;10.80;99.90;;;;;;5008869;28;38420;-85
2023/12/29 05:29:10;;;;;;;37.03;5.10;;;10.80;99.90;;;;;;5006543;28;36349;-87
2023/12/29 05:31:36;;;;;;;31.27;4.37;;;10.80;99.90;;;;;;5011037;28;38704;-84
2023/12/29 05:34:02;;;;;;;30.80;4.90;;;10.80;99.90;;;;;;5001211;28;35897;-86
2023/12/29 05:36:28;;;;;;;32.23;4.63;;;10.80;99.90;;;;;;5021302;28;38088;-85
2023/12/29 05:38:56;;;;;;;25.10;3.80;;;10.80;99.90;;;;;;5023525;28;37925;-85
2023/12/29 05:41:22;;;;;;;24.37;3.97;;;10.70;99.90;;;;;;5007307;28;37753;-87
2023/12/29 05:43:48;;;;;;;28.30;5.47;;;10.70;99.90;;;;;;5018877;28;38486;-86
2023/12/29 05:46:14;;;;;;;22.50;3.70;;;10.70;99.90;;;;;;5025774;28;37646;-85
2023/12/29 05:48:41;;;;;;;23.23;3.63;;;10.60;99.90;;;;;;5020694;28;37801;-87
2023/12/29 05:51:10;;;;;;;28.47;4.03;;;10.60;99.90;;;;;;5012566;28;37766;-87
2023/12/29 05:53:37;;;;;;;31.13;3.77;;;10.60;99.90;;;;;;5028189;28;39513;-89
2023/12/29 05:56:03;;;;;;;28.73;3.57;;;10.60;99.90;;;;;;4999505;28;37376;-84
2023/12/29 05:58:29;;;;;;;32.73;4.03;;;10.50;99.90;;;;;;5011750;28;36169;-85
2023/12/29 06:00:56;;;;;;;28.60;4.77;;;10.50;99.90;;;;;;5010493;28;37724;-88
2023/12/29 06:03:23;;;;;;;21.93;3.97;;;10.60;99.90;;;;;;5007865;28;38650;-87
2023/12/29 06:05:49;;;;;;;17.37;3.30;;;10.60;99.90;;;;;;5028019;28;37939;-86
2023/12/29 06:08:15;;;;;;;19.97;3.10;;;10.70;99.90;;;;;;5005071;28;36477;-86
2023/12/29 06:10:41;;;;;;;26.83;3.80;;;10.70;99.90;;;;;;5010475;28;37781;-86
2023/12/29 06:13:07;;;;;;;16.57;2.90;;;10.70;99.90;;;;;;5005135;28;37518;-82
2023/12/29 06:15:34;;;;;;;31.90;4.63;;;10.70;99.90;;;;;;5009782;28;38532;-83
2023/12/29 06:18:01;;;;;;;19.40;3.17;;;10.70;99.90;;;;;;5007193;28;36692;-85
2023/12/29 06:20:27;;;;;;;17.20;3.67;;;10.70;99.90;;;;;;5024550;28;38628;-86
2023/12/29 06:22:53;;;;;;;24.93;3.57;;;10.70;99.90;;;;;;5031721;28;38244;-87
2023/12/29 06:25:19;;;;;;;20.37;3.13;;;10.70;99.90;;;;;;5027309;28;38392;-85
2023/12/29 06:27:45;;;;;;;17.67;3.67;;;10.70;99.90;;;;;;5020943;28;38687;-85
2023/12/29 06:30:12;;;;;;;20.83;3.80;;;10.70;99.90;;;;;;5011764;28;37868;-87
2023/12/29 06:32:39;;;;;;;18.97;4.17;;;10.70;99.90;;;;;;5004460;28;37725;-85
2023/12/29 06:35:06;;;;;;;23.17;3.73;;;10.70;99.90;;;;;;4997357;28;38138;-83
2023/12/29 06:37:33;;;;;;;22.83;3.53;;;10.60;99.90;;;;;;4995584;28;37072;-86
2023/12/29 06:39:59;;;;;;;23.00;4.13;;;10.60;99.90;;;;;;5005571;28;37832;-88
2023/12/29 06:42:25;;;;;;;19.53;3.90;;;10.60;99.90;;;;;;5008221;28;37327;-87
2023/12/29 06:44:51;;;;;;;19.83;3.67;;;10.50;99.90;;;;;;5021851;28;37152;-89
2023/12/29 06:47:22;;;;;;;19.43;3.90;;;10.50;99.90;;;;;;5008369;28;36263;-86
2023/12/29 06:49:49;;;;;;;20.27;3.70;;;10.50;99.90;;;;;;5031948;28;39211;-88
2023/12/29 06:52:16;;;;;;;12.83;2.50;;;10.50;99.90;;;;;;5014428;28;37537;-87
2023/12/29 06:54:42;;;;;;;21.33;3.20;;;10.50;99.90;;;;;;5013537;28;36888;-88
2023/12/29 06:57:08;;;;;;;27.33;4.40;;;10.40;99.90;;;;;;5019406;28;37412;-86
2023/12/29 06:59:41;;;;;;;24.97;4.27;;;10.40;99.90;;;;;;5011028;28;38497;-89
2023/12/29 07:02:07;;;;;;;17.23;4.03;;;10.40;99.90;;;;;;5002048;28;37905;-88
2023/12/29 07:04:36;;;;;;;19.83;4.17;;;10.40;99.90;;;;;;5009235;28;37372;-87
2023/12/29 07:07:02;;;;;;;16.43;3.53;;;10.50;99.90;;;;;;5033880;28;38430;-87
2023/12/29 07:09:28;;;;;;;14.90;3.07;;;10.60;99.90;;;;;;5010308;28;37676;-89
2023/12/29 07:11:55;;;;;;;18.77;3.00;;;10.60;99.90;;;;;;5013923;28;37369;-87
2023/12/29 07:14:21;;;;;;;12.73;2.63;;;10.60;99.90;;;;;;5009243;28;40416;-87
2023/12/29 07:16:47;;;;;;;21.20;2.73;;;10.60;99.90;;;;;;5002616;28;35884;-86
2023/12/29 07:19:13;;;;;;;16.63;2.43;;;10.60;99.90;;;;;;5015679;28;39283;-85
2023/12/29 07:21:39;;;;;;;16.90;3.20;;;10.60;99.90;;;;;;5019896;28;38899;-87
2023/12/29 07:24:06;;;;;;;15.73;2.20;;;10.60;99.90;;;;;;5027206;28;38832;-86
2023/12/29 07:26:35;;;;;;;11.57;2.10;;;10.60;99.90;;;;;;5031363;28;37901;-91
2023/12/29 07:29:01;;;;;;;10.57;2.63;;;10.60;99.90;;;;;;5030266;28;40474;-88
2023/12/29 07:31:27;;;;;;;11.93;2.43;;;10.60;99.90;;;;;;5006818;28;47354;-87
2023/12/29 07:33:54;;;;;;;9.60;1.83;;;10.60;99.90;;;;;;5023948;28;37137;-88
2023/12/29 07:36:21;;;;;;;10.77;1.67;;;10.60;99.90;;;;;;5010362;28;36054;-88
2023/12/29 07:38:47;;;;;;;11.40;2.20;;;10.60;99.90;;;;;;5017705;28;38057;-85
2023/12/29 07:41:14;;;;;;;7.67;1.60;;;10.60;99.90;;;;;;5030603;28;38539;-87
2023/12/29 07:43:40;;;;;;;10.07;2.10;;;10.60;99.90;;;;;;5002905;28;38268;-87
2023/12/29 07:46:06;;;;;;;7.63;1.97;;;10.70;99.90;;;;;;5012410;28;36642;-85
2023/12/29 07:48:32;;;;;;;9.80;1.80;;;10.70;99.90;;;;;;5010819;28;37349;-87
2023/12/29 07:51:05;;;;;;;10.83;1.90;;;10.70;99.90;;;;;;5012848;28;37122;-89
2023/12/29 07:53:33;;;;;;;7.90;2.00;;;10.70;99.90;;;;;;5028706;28;48305;-89
2023/12/29 07:55:59;;;;;;;6.87;1.70;;;10.70;99.90;;;;;;5032743;28;37465;-88
2023/12/29 07:58:25;;;;;;;9.93;2.43;;;10.70;99.90;;;;;;5034130;28;39093;-89
2023/12/29 08:00:51;;;;;;;6.63;2.03;;;10.70;99.90;;;;;;5013696;28;39263;-88
2023/12/29 08:03:17;;;;;;;8.03;1.70;;;10.80;99.90;;;;;;5025743;28;38577;-89
2023/12/29 08:05:45;;;;;;;6.83;2.10;;;10.80;99.90;;;;;;5004441;28;36764;-75
2023/12/29 08:08:12;;;;;;;6.63;1.80;;;10.80;99.90;;;;;;5003530;28;39270;-79
2023/12/29 08:10:38;;;;;;;6.63;2.00;;;10.80;99.90;;;;;;5001072;28;36989;-79
2023/12/29 08:13:04;;;;;;;7.07;1.50;;;10.80;99.90;;;;;;5022961;28;37853;-78
2023/12/29 08:15:30;;;;;;;12.77;1.83;;;10.90;99.90;;;;;;4999851;28;36118;-80
2023/12/29 08:17:56;;;;;;;9.10;2.00;;;10.80;99.90;;;;;;4999099;28;39904;-78
2023/12/29 08:20:24;;;;;;;10.30;1.90;;;10.90;99.90;;;;;;4987380;28;38132;-80
2023/12/29 08:22:50;;;;;;;7.67;1.87;;;10.90;99.90;;;;;;5005321;28;37855;-78
2023/12/29 08:25:16;;;;;;;8.60;1.77;;;10.90;99.90;;;;;;5006043;28;36177;-83
2023/12/29 08:27:43;;;;;;;7.77;1.80;;;10.90;99.90;;;;;;5019662;28;40457;-80
2023/12/29 08:30:09;;;;;;;9.93;1.80;;;10.90;99.90;;;;;;4995790;28;38566;-79
2023/12/29 08:32:35;;;;;;;10.77;1.93;;;10.90;99.90;;;;;;5004782;28;38010;-78
2023/12/29 08:35:02;;;;;;;7.30;1.60;;;10.90;99.90;;;;;;5027254;28;39024;-79
2023/12/29 08:37:29;;;;;;;10.20;1.70;;;10.90;99.90;;;;;;5009205;28;38998;-78
2023/12/29 08:39:55;;;;;;;12.37;1.60;;;10.80;99.90;;;;;;4988161;28;37812;-80
2023/12/29 08:42:21;;;;;;;11.68;1.70;;;10.90;99.90;;;;;;4990307;28;37295;-79
2023/12/29 08:44:47;;;;;;;9.48;1.70;;;10.90;99.90;;;;;;4986365;28;36535;-81
2023/12/29 08:47:14;;;;;;;7.75;2.00;;;10.80;99.90;;;;;;5003601;28;37778;-81
2023/12/29 08:49:40;;;;;;;6.93;1.70;;;10.80;99.90;;;;;;5007266;28;37331;-82
2023/12/29 08:52:08;;;;;;;11.88;2.42;;;10.90;99.90;;;;;;5004823;28;36930;-81
2023/12/29 08:54:36;;;;;;;6.72;1.63;;;10.90;99.90;;;;;;5013373;28;36418;-81
2023/12/29 08:57:03;;;;;;;7.32;1.73;;;10.90;99.90;;;;;;5007705;28;37696;-80
2023/12/29 08:59:30;;;;;;;5.67;1.23;;;10.90;99.90;;;;;;4984724;28;37391;-81
2023/12/29 09:01:56;;;;;;;9.47;1.73;;;10.90;99.90;;;;;;5014690;28;38990;-80
2023/12/29 09:04:22;;;;;;;11.70;1.90;;;10.90;99.90;;;;;;5020397;28;36963;-81
2023/12/29 09:06:48;;;;;;;9.57;1.67;;;10.90;99.90;;;;;;5022218;28;41772;-83
2023/12/29 09:09:14;;;;;;;7.70;1.40;;;10.80;99.90;;;;;;5007688;28;39111;-82
2023/12/29 09:11:42;;;;;;;14.40;1.53;;;10.80;99.90;;;;;;4999909;28;38751;-78
2023/12/29 09:14:08;;;;;;;8.27;1.83;;;10.80;99.90;;;;;;5004119;28;36283;-79
2023/12/29 09:16:36;;;;;;;11.73;1.80;;;10.80;99.90;;;;;;5016316;28;37442;-78
2023/12/29 09:19:02;;;;;;;11.73;1.70;;;10.90;99.90;;;;;;5001113;28;39264;-78
2023/12/29 09:21:28;;;;;;;9.02;1.42;;;10.90;99.90;;;;;;4983846;28;37197;-80
2023/12/29 09:23:54;;;;;;;8.77;1.60;;;11.00;99.90;;;;;;5004466;28;38759;-80
2023/12/29 09:26:20;;;;;;;11.00;1.80;;;11.10;99.90;;;;;;4990336;28;37965;-83
2023/12/29 09:28:47;;;;;;;9.48;2.00;;;11.10;99.90;;;;;;4996632;28;38281;-78
2023/12/29 09:31:13;;;;;;;15.70;1.60;;;11.20;99.90;;;;;;5001751;28;37151;-76
2023/12/29 09:33:40;;;;;;;8.68;1.50;;;11.20;99.90;;;;;;4999876;28;37426;-76
2023/12/29 09:36:06;;;;;;;9.80;1.40;;;11.20;99.90;;;;;;5020515;28;39656;-78
2023/12/29 09:38:33;;;;;;;7.65;1.42;;;11.30;99.90;;;;;;4997634;28;39100;-77
2023/12/29 09:41:06;;;;;;;6.28;1.23;;;11.30;99.90;;;;;;4995441;28;37207;-80
2023/12/29 09:43:32;;;;;;;7.97;1.98;;;11.40;99.90;;;;;;5006148;28;47142;-90
2023/12/29 09:45:59;;;;;;;7.40;1.73;;;11.40;99.90;;;;;;5005035;28;38279;-90
2023/12/29 09:48:27;;;;;;;12.02;1.77;;;11.40;99.90;;;;;;4988757;28;39784;-86
2023/12/29 09:50:54;;;;;;;12.38;1.63;;;11.40;99.90;;;;;;4995099;28;36890;-84
2023/12/29 09:53:21;;;;;;;12.63;2.17;;;11.50;99.90;;;;;;5003624;28;36116;-85
2023/12/29 09:55:52;;;;;;;11.63;1.70;;;11.50;99.90;;;;;;4994800;28;39054;-82
2023/12/29 09:58:21;;;;;;;12.40;2.30;;;11.60;99.90;;;;;;5010426;28;37581;-89
2023/12/29 10:01:15;;;;;;;12.85;1.98;;;11.60;99.90;;;;;;5006261;28;40315;-86
2023/12/29 10:03:44;;;;;;;18.40;2.25;;;11.60;99.90;;;;;;4992303;28;49143;-86
2023/12/29 10:06:47;;;;;;;19.52;2.83;;;11.60;99.90;;;;;;5027655;28;40048;-81
2023/12/29 10:09:16;;;;;;;15.57;2.05;;;11.50;99.90;;;;;;5007537;28;37559;-77
2023/12/29 10:11:52;;;;;;;19.50;2.40;;;11.50;99.90;;;;;;4992871;28;37987;-78
2023/12/29 10:15:02;;;;;;;13.77;2.20;;;11.50;99.90;;;;;;5013483;28;37379;-80
2023/12/29 10:18:02;;;;;;;20.55;2.95;;;11.50;99.90;;;;;;5017833;28;39196;-81
2023/12/29 10:21:22;;;;;;;19.70;3.10;;;11.60;99.90;;;;;;5004817;28;48015;-81
2023/12/29 10:24:18;;;;;;;16.83;3.25;;;11.60;99.90;;;;;;4961601;28;47672;-82
2023/12/29 10:26:50;;;;;;;19.77;3.13;;;11.60;99.90;;;;;;5025657;28;49141;-84
2023/12/29 10:29:18;;;;;;;17.05;2.90;;;11.60;99.90;;;;;;5003597;28;38264;-83
2023/12/29 10:31:50;;;;;;;18.25;3.53;;;11.70;99.90;;;;;;5006474;28;39045;-82
2023/12/29 10:34:41;;;;;;;20.90;3.45;;;11.70;99.90;;;;;;5009879;28;37431;-78
2023/12/29 10:37:36;;;;;;;17.17;3.22;;;11.70;99.90;;;;;;5007868;28;36280;-79
2023/12/29 10:40:16;;;;;;;19.95;3.70;;;11.70;99.90;;;;;;5006492;28;39491;-79
2023/12/29 10:43:33;;;;;;;27.42;3.75;;;11.70;99.90;;;;;;5007465;28;50362;-83
2023/12/29 10:46:25;;;;;;;24.83;3.80;;;11.70;99.90;;;;;;4929904;28;49937;-84
2023/12/29 10:49:15;;;;;;;24.73;3.38;;;11.80;99.90;;;;;;4963679;28;47906;-81
2023/12/29 10:52:40;;;;;;;;;;;;;;;;;;;;;
2023/12/29 10:58:47;;;;;;;;;;;;;;;;;;;;;
2023/12/29 11:01:47;;;;;;;23.70;3.47;;;11.90;99.90;;;;;;4918921;28;37320;-81
2023/12/29 11:04:41;;;;;;;;;;;;;;;;;;;;;
2023/12/29 11:07:30;;;;;;;19.80;3.13;;;11.90;99.90;;;;;;4967786;28;38169;-77
2023/12/29 11:10:50;;;;;;;;;;;;;;;;;;;;;
2023/12/29 11:14:00;;;;;;;26.83;4.30;;;12.00;99.90;;;;;;4849340;29;48729;-81
2023/12/29 11:17:11;;;;;;;24.98;3.63;;;12.00;99.90;;;;;;4871216;28;39041;-83
2023/12/29 11:23:24;;;;;;;;;;;;;;;;;;;;;
2023/12/29 11:26:14;;;;;;;;;;;;;;;;;;;;;
2023/12/29 11:29:20;;;;;;;;;;;;;;;;;;;;;
2023/12/29 11:32:26;;;;;;;27.58;3.72;;;12.00;99.90;;;;;;4882041;28;48643;-83
2023/12/29 11:38:28;;;;;;;;;;;;;;;;;;;;;
2023/12/29 11:41:26;;;;;;;;;;;;;;;;;;;;;
2023/12/29 11:45:18;;;;;;;;;;;;;;;;;;;;;
2023/12/29 11:52:01;;;;;;;29.30;5.03;;;12.10;99.90;;;;;;4802512;29;48562;-82
2023/12/29 11:54:40;;;;;;;26.38;4.70;;;12.10;99.90;;;;;;4855921;29;38210;-82
2023/12/29 11:57:31;;;;;;;25.48;4.05;;;12.00;99.90;;;;;;4916335;28;37612;-83
2023/12/29 12:00:09;;;;;;;28.58;4.25;;;12.10;99.90;;;;;;4918699;28;37737;-81
2023/12/29 12:03:56;;;;;;;;;;;;;;;;;;;;;
2023/12/29 12:10:10;;;;;;;25.17;3.60;;;12.10;99.90;;;;;;4863465;29;48911;-85
2023/12/29 12:12:48;;;;;;;19.38;4.07;;;12.10;99.90;;;;;;4828978;29;47881;-82
2023/12/29 12:15:44;;;;;;;18.27;4.13;;;12.10;99.90;;;;;;4871090;28;37090;-83
2023/12/29 12:18:50;;;;;;;;;;;;;;;;;;;;;
2023/12/29 12:28:31;;;;;;;16.38;3.08;;;12.10;99.90;;;;;;4869229;29;48599;-85
2023/12/29 12:32:03;;;;;;;25.00;4.30;;;12.20;99.90;;;;;;4934538;28;38901;-82
2023/12/29 12:35:11;;;;;;;;;;;;;;;;;;;;;
2023/12/29 12:38:35;;;;;;;;;;;;;;;;;;;;;
2023/12/29 12:41:46;;;;;;;27.40;4.05;;;12.20;99.90;;;;;;4910722;28;48233;-83
2023/12/29 12:49:03;;;;;;;;;;;;;;;;;;;;;
2023/12/29 12:55:04;;;;;;;21.40;3.70;;;12.30;99.90;;;;;;4904261;28;49065;-81
2023/12/29 12:57:33;;;;;;;32.20;4.47;;;12.30;99.90;;;;;;4991611;28;37914;-85
2023/12/29 13:00:05;;;;;;;22.52;3.70;;;12.20;99.90;;;;;;5007636;28;38681;-83
2023/12/29 13:02:32;;;;;;;;;;;12.20;99.90;;;;;;5019131;28;38007;-83
2023/12/29 13:05:00;;;;;;;23.60;4.43;;;12.20;99.90;;;;;;5008763;28;37075;-82
2023/12/29 13:07:26;;;;;;;24.48;4.82;;;12.10;99.90;;;;;;5011196;28;38672;-83
2023/12/29 13:09:52;;;;;;;24.50;4.15;;;12.20;99.90;;;;;;5005882;28;37875;-79
2023/12/29 13:12:19;;;;;;;22.35;3.67;;;12.10;99.90;;;;;;5013938;28;38505;-80
2023/12/29 13:14:46;;;;;;;28.35;6.45;;;12.10;99.90;;;;;;5013381;28;36502;-79
2023/12/29 13:17:17;;;;;;;25.92;4.72;;;12.10;99.90;;;;;;5012203;28;37551;-80
2023/12/29 13:19:44;;;;;;;40.75;7.05;;;12.10;99.90;;;;;;5031299;28;38707;-82
2023/12/29 13:22:11;;;;;;;33.50;6.15;;;12.20;99.90;;;;;;5041872;28;37397;-79
2023/12/29 13:24:45;;;;;;;39.13;5.10;;;12.10;99.90;;;;;;5009204;28;36524;-81
2023/12/29 13:27:12;;;;;;;35.67;6.10;;;12.10;99.90;;;;;;5011402;28;38079;-80
2023/12/29 13:29:38;;;;;;;35.25;5.85;;;12.20;99.90;;;;;;5010076;28;37556;-79
2023/12/29 13:32:13;;;;;;;40.17;7.22;;;12.10;99.90;;;;;;5014325;28;37150;-79
2023/12/29 13:34:42;;;;;;;38.38;6.03;;;12.10;99.90;;;;;;5013765;28;36317;-81
2023/12/29 13:37:24;;;;;;;44.75;7.03;;;12.10;99.90;;;;;;5025961;28;38344;-79
2023/12/29 13:39:54;;;;;;;38.15;5.90;;;12.10;99.90;;;;;;5009959;28;38143;-79
2023/12/29 13:42:23;;;;;;;56.38;28.20;;;12.10;99.90;;;;;;5011638;28;37314;-80
2023/12/29 13:44:52;;;;;;;45.13;6.85;;;12.10;99.90;;;;;;5033327;28;38230;-78
2023/12/29 13:47:21;;;;;;;37.15;5.07;;;12.10;99.90;;;;;;5032582;28;38904;-80
2023/12/29 13:49:54;;;;;;;40.38;5.65;;;12.00;99.90;;;;;;5015498;28;38073;-78
2023/12/29 13:52:20;;;;;;;37.25;5.70;;;12.00;99.90;;;;;;5010569;28;38200;-80
2023/12/29 13:54:47;;;;;;;35.50;4.90;;;12.00;99.90;;;;;;5016400;28;36017;-83